Sierra Loba — PJYS — position and weather

sailwx.info

Track history (hours):
 
Tides and Currents Weather Stations Pressure Air Temp Water Temp Dewpoint Dewpoint Depression Visibility Wind Speed Wind Dir Waves Ship Positions

Sierra Loba

Last reported at 2018-Jul-10 11:16 UTC. Time now 2018-Jul-15 19:03 UTC.
Position N 09°37' W 079°45'.

Length 118 m; draft 5.9 m.

Type: Cargo ship. MMSI: 306872000.

Date/timePositionNaut miles runAvg speedWind from/ knotsBaromVisibWave heightAir tempDewpointWater temp
2018-Jul-10 11:16N 09°37' W 079°45'412.4
2018-Jul-10 10:58N 09°34' W 079°48'612.8
2018-Jul-10 10:28N 09°30' W 079°52'611.9
2018-Jul-10 10:00N 09°25' W 079°55'5 9.8
2018-Jul-10 09:30N 09°20' W 079°55'3 6.0
2018-Jul-10 08:57N 09°17' W 079°55'0 0.6
2018-Jul-10 08:30N 09°16' W 079°55'0 0.5
2018-Jul-10 08:00N 09°16' W 079°55'0 0.8
2018-Jul-10 07:29N 09°16' W 079°55'1 1.1
2018-Jul-10 07:00N 09°15' W 079°55'0 0.3
2018-Jul-10 06:28N 09°15' W 079°55'0 0.5
2018-Jul-10 05:58N 09°15' W 079°55'0 0.8
2018-Jul-10 05:27N 09°15' W 079°55'1 2.6
2018-Jul-10 05:00N 09°13' W 079°55'2 3.5
2018-Jul-10 04:28N 09°12' W 079°54'  
Track history (hours):
 
Tides and Currents Weather Stations Pressure Air Temp Water Temp Dewpoint Dewpoint Depression Visibility Wind Speed Wind Dir Waves Ship Positions

Sierra Loba

Last reported at 2018-Jul-10 11:16 UTC. Time now 2018-Jul-15 19:03 UTC.
Position N 09°37' W 079°45'.

Length 118 m; draft 5.9 m.

Type: Cargo ship. MMSI: 306872000.

Date/timePositionNaut miles runAvg speedWind from/ knotsBaromVisibWave heightAir tempDewpointWater temp
2018-Jul-10 11:16N 09°37' W 079°45'412.4
2018-Jul-10 10:58N 09°34' W 079°48'612.8
2018-Jul-10 10:28N 09°30' W 079°52'611.9
2018-Jul-10 10:00N 09°25' W 079°55'5 9.8
2018-Jul-10 09:30N 09°20' W 079°55'3 6.0
2018-Jul-10 08:57N 09°17' W 079°55'0 0.6
2018-Jul-10 08:30N 09°16' W 079°55'0 0.5
2018-Jul-10 08:00N 09°16' W 079°55'0 0.8
2018-Jul-10 07:29N 09°16' W 079°55'1 1.1
2018-Jul-10 07:00N 09°15' W 079°55'0 0.3
2018-Jul-10 06:28N 09°15' W 079°55'0 0.5
2018-Jul-10 05:58N 09°15' W 079°55'0 0.8
2018-Jul-10 05:27N 09°15' W 079°55'1 2.6
2018-Jul-10 05:00N 09°13' W 079°55'2 3.5
2018-Jul-10 04:28N 09°12' W 079°54'  

Dump ship's entire track history